sensor_id;sensor_type;location;lat;lon;timestamp;P1;durP1;ratioP1;P2;durP2;ratioP2
58643;SDS011;44411;49.994;8.660;2023-03-11T00:00:42;3.10;;;2.00;;
58643;SDS011;44411;49.994;8.660;2023-03-11T00:03:10;3.28;;;1.80;;
58643;SDS011;44411;49.994;8.660;2023-03-11T00:05:38;5.13;;;2.30;;
58643;SDS011;44411;49.994;8.660;2023-03-11T00:08:06;2.67;;;1.58;;
58643;SDS011;44411;49.994;8.660;2023-03-11T00:10:34;3.78;;;2.13;;
58643;SDS011;44411;49.994;8.660;2023-03-11T00:13:08;3.38;;;1.75;;
58643;SDS011;44411;49.994;8.660;2023-03-11T00:15:35;3.40;;;1.98;;
58643;SDS011;44411;49.994;8.660;2023-03-11T00:18:03;2.78;;;1.67;;
58643;SDS011;44411;49.994;8.660;2023-03-11T00:20:31;3.22;;;1.45;;
58643;SDS011;44411;49.994;8.660;2023-03-11T00:22:59;2.95;;;1.60;;
58643;SDS011;44411;49.994;8.660;2023-03-11T00:25:26;2.50;;;1.48;;
58643;SDS011;44411;49.994;8.660;2023-03-11T00:27:53;4.38;;;2.17;;
58643;SDS011;44411;49.994;8.660;2023-03-11T00:30:19;2.90;;;1.52;;
58643;SDS011;44411;49.994;8.660;2023-03-11T00:32:48;2.40;;;1.60;;
58643;SDS011;44411;49.994;8.660;2023-03-11T00:35:18;2.15;;;1.30;;
58643;SDS011;44411;49.994;8.660;2023-03-11T00:37:46;3.50;;;1.43;;
58643;SDS011;44411;49.994;8.660;2023-03-11T00:40:13;2.42;;;1.45;;
58643;SDS011;44411;49.994;8.660;2023-03-11T00:42:41;2.85;;;1.58;;
58643;SDS011;44411;49.994;8.660;2023-03-11T00:45:06;3.47;;;1.50;;
58643;SDS011;44411;49.994;8.660;2023-03-11T00:47:32;2.08;;;1.33;;
58643;SDS011;44411;49.994;8.660;2023-03-11T00:49:57;2.28;;;1.30;;
58643;SDS011;44411;49.994;8.660;2023-03-11T00:52:23;2.33;;;1.40;;
58643;SDS011;44411;49.994;8.660;2023-03-11T00:54:48;4.90;;;1.48;;
58643;SDS011;44411;49.994;8.660;2023-03-11T00:57:13;2.53;;;1.33;;
58643;SDS011;44411;49.994;8.660;2023-03-11T00:59:39;3.20;;;1.50;;
58643;SDS011;44411;49.994;8.660;2023-03-11T01:02:04;3.80;;;1.30;;
58643;SDS011;44411;49.994;8.660;2023-03-11T01:04:29;3.45;;;2.10;;
58643;SDS011;44411;49.994;8.660;2023-03-11T01:06:55;2.63;;;1.20;;
58643;SDS011;44411;49.994;8.660;2023-03-11T01:09:20;3.05;;;1.33;;
58643;SDS011;44411;49.994;8.660;2023-03-11T01:11:46;2.03;;;1.17;;
58643;SDS011;44411;49.994;8.660;2023-03-11T01:14:11;2.08;;;1.10;;
58643;SDS011;44411;49.994;8.660;2023-03-11T01:16:36;3.55;;;1.27;;
58643;SDS011;44411;49.994;8.660;2023-03-11T01:19:02;3.45;;;1.13;;
58643;SDS011;44411;49.994;8.660;2023-03-11T01:21:27;1.95;;;1.30;;
58643;SDS011;44411;49.994;8.660;2023-03-11T01:23:52;2.35;;;1.30;;
58643;SDS011;44411;49.994;8.660;2023-03-11T01:26:18;4.45;;;1.65;;
58643;SDS011;44411;49.994;8.660;2023-03-11T01:28:43;5.22;;;1.65;;
58643;SDS011;44411;49.994;8.660;2023-03-11T01:31:09;5.82;;;1.40;;
58643;SDS011;44411;49.994;8.660;2023-03-11T01:33:34;6.32;;;1.95;;
58643;SDS011;44411;49.994;8.660;2023-03-11T01:36:00;5.60;;;1.30;;
58643;SDS011;44411;49.994;8.660;2023-03-11T01:38:25;9.35;;;2.20;;
58643;SDS011;44411;49.994;8.660;2023-03-11T01:40:51;2.47;;;1.40;;
58643;SDS011;44411;49.994;8.660;2023-03-11T01:49:24;4.20;;;1.73;;
58643;SDS011;44411;49.994;8.660;2023-03-11T01:51:51;3.83;;;1.60;;
58643;SDS011;44411;49.994;8.660;2023-03-11T01:54:27;3.08;;;1.67;;
58643;SDS011;44411;49.994;8.660;2023-03-11T01:56:56;12.15;;;2.22;;
58643;SDS011;44411;49.994;8.660;2023-03-11T01:59:23;5.30;;;2.00;;
58643;SDS011;44411;49.994;8.660;2023-03-11T02:02:13;4.43;;;1.77;;
58643;SDS011;44411;49.994;8.660;2023-03-11T02:04:40;6.38;;;2.17;;
58643;SDS011;44411;49.994;8.660;2023-03-11T02:07:07;5.60;;;1.98;;
58643;SDS011;44411;49.994;8.660;2023-03-11T02:09:34;6.68;;;1.50;;
58643;SDS011;44411;49.994;8.660;2023-03-11T02:11:59;4.70;;;1.77;;
58643;SDS011;44411;49.994;8.660;2023-03-11T02:14:25;5.43;;;1.75;;
58643;SDS011;44411;49.994;8.660;2023-03-11T02:16:54;4.07;;;1.70;;
58643;SDS011;44411;49.994;8.660;2023-03-11T02:22:14;4.03;;;1.50;;
58643;SDS011;44411;49.994;8.660;2023-03-11T02:27:15;5.43;;;2.20;;
58643;SDS011;44411;49.994;8.660;2023-03-11T02:29:43;6.15;;;2.85;;
58643;SDS011;44411;49.994;8.660;2023-03-11T02:32:12;3.50;;;1.65;;
58643;SDS011;44411;49.994;8.660;2023-03-11T02:34:38;3.80;;;1.60;;
58643;SDS011;44411;49.994;8.660;2023-03-11T02:37:07;4.65;;;2.55;;
58643;SDS011;44411;49.994;8.660;2023-03-11T02:39:39;4.38;;;2.25;;
58643;SDS011;44411;49.994;8.660;2023-03-11T02:42:09;4.35;;;2.13;;
58643;SDS011;44411;49.994;8.660;2023-03-11T02:45:04;4.30;;;1.75;;
58643;SDS011;44411;49.994;8.660;2023-03-11T02:47:33;5.47;;;2.22;;
58643;SDS011;44411;49.994;8.660;2023-03-11T02:50:01;4.43;;;1.42;;
58643;SDS011;44411;49.994;8.660;2023-03-11T06:01:16;8.07;;;2.85;;
58643;SDS011;44411;49.994;8.660;2023-03-11T06:03:42;4.93;;;2.72;;
58643;SDS011;44411;49.994;8.660;2023-03-11T06:06:10;8.02;;;2.53;;
58643;SDS011;44411;49.994;8.660;2023-03-11T06:08:37;8.23;;;3.10;;
58643;SDS011;44411;49.994;8.660;2023-03-11T06:11:07;8.50;;;3.03;;
58643;SDS011;44411;49.994;8.660;2023-03-11T06:13:34;6.47;;;3.20;;
58643;SDS011;44411;49.994;8.660;2023-03-11T06:16:00;7.10;;;2.92;;
58643;SDS011;44411;49.994;8.660;2023-03-11T06:18:25;5.80;;;2.50;;
58643;SDS011;44411;49.994;8.660;2023-03-11T06:20:51;5.78;;;2.92;;
58643;SDS011;44411;49.994;8.660;2023-03-11T06:23:17;10.32;;;3.00;;
58643;SDS011;44411;49.994;8.660;2023-03-11T06:25:43;10.07;;;4.20;;
58643;SDS011;44411;49.994;8.660;2023-03-11T06:28:08;9.10;;;2.90;;
58643;SDS011;44411;49.994;8.660;2023-03-11T06:30:34;7.43;;;3.00;;
58643;SDS011;44411;49.994;8.660;2023-03-11T06:32:59;12.27;;;3.50;;
58643;SDS011;44411;49.994;8.660;2023-03-11T06:35:24;10.15;;;3.55;;
58643;SDS011;44411;49.994;8.660;2023-03-11T06:37:50;8.85;;;3.00;;
58643;SDS011;44411;49.994;8.660;2023-03-11T06:40:15;6.53;;;3.10;;
58643;SDS011;44411;49.994;8.660;2023-03-11T06:42:41;8.60;;;3.08;;
58643;SDS011;44411;49.994;8.660;2023-03-11T06:45:06;7.50;;;3.00;;
58643;SDS011;44411;49.994;8.660;2023-03-11T06:47:32;10.38;;;3.60;;
58643;SDS011;44411;49.994;8.660;2023-03-11T06:49:57;7.53;;;3.72;;
58643;SDS011;44411;49.994;8.660;2023-03-11T06:52:22;6.75;;;3.08;;
58643;SDS011;44411;49.994;8.660;2023-03-11T06:54:48;7.18;;;3.78;;
58643;SDS011;44411;49.994;8.660;2023-03-11T06:57:13;7.28;;;3.35;;
58643;SDS011;44411;49.994;8.660;2023-03-11T06:59:40;8.48;;;3.92;;
58643;SDS011;44411;49.994;8.660;2023-03-11T07:02:05;7.53;;;3.22;;
58643;SDS011;44411;49.994;8.660;2023-03-11T07:04:31;6.53;;;3.15;;
58643;SDS011;44411;49.994;8.660;2023-03-11T07:06:56;9.85;;;3.88;;
58643;SDS011;44411;49.994;8.660;2023-03-11T07:09:22;9.35;;;4.50;;
58643;SDS011;44411;49.994;8.660;2023-03-11T07:11:49;13.05;;;4.53;;
58643;SDS011;44411;49.994;8.660;2023-03-11T07:14:16;8.20;;;3.58;;
58643;SDS011;44411;49.994;8.660;2023-03-11T07:16:42;14.13;;;3.67;;
58643;SDS011;44411;49.994;8.660;2023-03-11T07:19:09;9.90;;;4.22;;
58643;SDS011;44411;49.994;8.660;2023-03-11T07:21:35;10.02;;;3.35;;
58643;SDS011;44411;49.994;8.660;2023-03-11T07:24:01;5.90;;;3.25;;
58643;SDS011;44411;49.994;8.660;2023-03-11T07:26:27;13.75;;;3.15;;
58643;SDS011;44411;49.994;8.660;2023-03-11T07:28:54;9.98;;;3.22;;
58643;SDS011;44411;49.994;8.660;2023-03-11T07:31:21;6.68;;;3.17;;
58643;SDS011;44411;49.994;8.660;2023-03-11T07:33:51;7.97;;;2.75;;
58643;SDS011;44411;49.994;8.660;2023-03-11T07:36:21;7.00;;;2.75;;
58643;SDS011;44411;49.994;8.660;2023-03-11T07:38:48;7.38;;;3.05;;
58643;SDS011;44411;49.994;8.660;2023-03-11T07:41:18;9.20;;;3.05;;
58643;SDS011;44411;49.994;8.660;2023-03-11T07:43:44;10.77;;;2.65;;
58643;SDS011;44411;49.994;8.660;2023-03-11T07:46:11;10.43;;;2.70;;
58643;SDS011;44411;49.994;8.660;2023-03-11T07:48:40;10.55;;;2.65;;
58643;SDS011;44411;49.994;8.660;2023-03-11T07:51:08;7.10;;;2.95;;
58643;SDS011;44411;49.994;8.660;2023-03-11T07:53:35;5.77;;;2.70;;
58643;SDS011;44411;49.994;8.660;2023-03-11T07:56:01;8.50;;;2.78;;
58643;SDS011;44411;49.994;8.660;2023-03-11T07:58:27;10.02;;;3.55;;
58643;SDS011;44411;49.994;8.660;2023-03-11T08:00:54;9.45;;;2.97;;
58643;SDS011;44411;49.994;8.660;2023-03-11T08:03:21;9.85;;;3.25;;
58643;SDS011;44411;49.994;8.660;2023-03-11T08:05:49;9.38;;;2.85;;
58643;SDS011;44411;49.994;8.660;2023-03-11T08:08:15;10.38;;;3.70;;
58643;SDS011;44411;49.994;8.660;2023-03-11T08:10:41;9.30;;;2.92;;
58643;SDS011;44411;49.994;8.660;2023-03-11T08:13:06;11.73;;;3.78;;
58643;SDS011;44411;49.994;8.660;2023-03-11T08:15:31;8.95;;;2.78;;
58643;SDS011;44411;49.994;8.660;2023-03-11T08:17:58;7.30;;;3.10;;
58643;SDS011;44411;49.994;8.660;2023-03-11T08:20:23;8.00;;;2.67;;
58643;SDS011;44411;49.994;8.660;2023-03-11T08:22:48;6.65;;;2.40;;
58643;SDS011;44411;49.994;8.660;2023-03-11T08:25:14;13.07;;;2.65;;
58643;SDS011;44411;49.994;8.660;2023-03-11T08:27:39;9.90;;;2.40;;
58643;SDS011;44411;49.994;8.660;2023-03-11T08:30:06;6.53;;;2.05;;
58643;SDS011;44411;49.994;8.660;2023-03-11T08:32:32;10.77;;;3.72;;
58643;SDS011;44411;49.994;8.660;2023-03-11T08:34:58;5.82;;;2.10;;
58643;SDS011;44411;49.994;8.660;2023-03-11T08:37:23;9.18;;;2.22;;
58643;SDS011;44411;49.994;8.660;2023-03-11T08:39:49;9.95;;;2.38;;
58643;SDS011;44411;49.994;8.660;2023-03-11T08:42:15;7.20;;;2.70;;
58643;SDS011;44411;49.994;8.660;2023-03-11T08:44:41;9.98;;;2.92;;
58643;SDS011;44411;49.994;8.660;2023-03-11T08:47:07;9.35;;;3.08;;
58643;SDS011;44411;49.994;8.660;2023-03-11T08:49:32;6.95;;;2.50;;
58643;SDS011;44411;49.994;8.660;2023-03-11T08:51:58;5.13;;;2.00;;
58643;SDS011;44411;49.994;8.660;2023-03-11T08:54:24;10.82;;;2.53;;
58643;SDS011;44411;49.994;8.660;2023-03-11T08:56:49;5.65;;;2.35;;
58643;SDS011;44411;49.994;8.660;2023-03-11T08:59:14;7.88;;;2.45;;
58643;SDS011;44411;49.994;8.660;2023-03-11T09:01:40;4.78;;;2.20;;
58643;SDS011;44411;49.994;8.660;2023-03-11T09:04:06;7.80;;;2.55;;
58643;SDS011;44411;49.994;8.660;2023-03-11T09:06:32;6.05;;;2.15;;
58643;SDS011;44411;49.994;8.660;2023-03-11T09:08:57;6.95;;;2.45;;
58643;SDS011;44411;49.994;8.660;2023-03-11T09:11:23;5.72;;;2.47;;
58643;SDS011;44411;49.994;8.660;2023-03-11T09:13:49;5.30;;;2.67;;
58643;SDS011;44411;49.994;8.660;2023-03-11T09:16:15;6.03;;;2.05;;
58643;SDS011;44411;49.994;8.660;2023-03-11T09:18:45;8.18;;;2.20;;
58643;SDS011;44411;49.994;8.660;2023-03-11T09:21:11;6.88;;;2.50;;
58643;SDS011;44411;49.994;8.660;2023-03-11T09:23:36;6.32;;;2.30;;
58643;SDS011;44411;49.994;8.660;2023-03-11T09:26:02;5.32;;;2.42;;
58643;SDS011;44411;49.994;8.660;2023-03-11T09:28:28;4.95;;;2.45;;
58643;SDS011;44411;49.994;8.660;2023-03-11T09:30:53;6.78;;;2.70;;
58643;SDS011;44411;49.994;8.660;2023-03-11T09:33:19;6.30;;;2.58;;
58643;SDS011;44411;49.994;8.660;2023-03-11T09:35:44;5.65;;;2.30;;
58643;SDS011;44411;49.994;8.660;2023-03-11T09:38:10;6.07;;;2.67;;
58643;SDS011;44411;49.994;8.660;2023-03-11T09:40:43;4.95;;;2.58;;
58643;SDS011;44411;49.994;8.660;2023-03-11T09:54:03;6.47;;;2.65;;
58643;SDS011;44411;49.994;8.660;2023-03-11T09:56:33;6.05;;;2.50;;
58643;SDS011;44411;49.994;8.660;2023-03-11T09:59:01;5.82;;;2.47;;
58643;SDS011;44411;49.994;8.660;2023-03-11T10:01:34;10.20;;;2.83;;
58643;SDS011;44411;49.994;8.660;2023-03-11T10:06:34;5.43;;;2.45;;
58643;SDS011;44411;49.994;8.660;2023-03-11T10:20:02;6.78;;;2.50;;
58643;SDS011;44411;49.994;8.660;2023-03-11T10:22:46;4.50;;;2.15;;
58643;SDS011;44411;49.994;8.660;2023-03-11T10:25:31;4.50;;;2.42;;
58643;SDS011;44411;49.994;8.660;2023-03-11T10:28:12;5.18;;;2.22;;
58643;SDS011;44411;49.994;8.660;2023-03-11T10:30:41;9.10;;;2.55;;
58643;SDS011;44411;49.994;8.660;2023-03-11T10:33:18;6.63;;;2.75;;
58643;SDS011;44411;49.994;8.660;2023-03-11T10:35:50;5.68;;;1.95;;
58643;SDS011;44411;49.994;8.660;2023-03-11T10:38:28;9.80;;;3.38;;
58643;SDS011;44411;49.994;8.660;2023-03-11T10:40:58;6.53;;;1.92;;
58643;SDS011;44411;49.994;8.660;2023-03-11T10:43:39;5.22;;;2.53;;
58643;SDS011;44411;49.994;8.660;2023-03-11T10:46:14;4.93;;;2.15;;
58643;SDS011;44411;49.994;8.660;2023-03-11T10:48:45;5.45;;;2.10;;
58643;SDS011;44411;49.994;8.660;2023-03-11T10:53:54;5.63;;;2.97;;
58643;SDS011;44411;49.994;8.660;2023-03-11T10:56:31;5.75;;;2.17;;
58643;SDS011;44411;49.994;8.660;2023-03-11T10:58:59;5.60;;;2.08;;
58643;SDS011;44411;49.994;8.660;2023-03-11T11:01:26;4.53;;;2.15;;
58643;SDS011;44411;49.994;8.660;2023-03-11T11:03:53;4.63;;;2.42;;
58643;SDS011;44411;49.994;8.660;2023-03-11T11:08:49;3.75;;;1.77;;
58643;SDS011;44411;49.994;8.660;2023-03-11T11:11:30;4.03;;;1.95;;
58643;SDS011;44411;49.994;8.660;2023-03-11T11:13:58;3.50;;;1.90;;
58643;SDS011;44411;49.994;8.660;2023-03-11T11:16:24;4.25;;;2.05;;
58643;SDS011;44411;49.994;8.660;2023-03-11T11:18:54;2.92;;;1.80;;
58643;SDS011;44411;49.994;8.660;2023-03-11T11:21:39;4.53;;;1.70;;
58643;SDS011;44411;49.994;8.660;2023-03-11T11:29:43;4.68;;;1.65;;
58643;SDS011;44411;49.994;8.660;2023-03-11T11:37:31;3.30;;;1.73;;
58643;SDS011;44411;49.994;8.660;2023-03-11T11:40:00;4.93;;;2.40;;
58643;SDS011;44411;49.994;8.660;2023-03-11T11:42:34;3.35;;;1.70;;
58643;SDS011;44411;49.994;8.660;2023-03-11T11:45:05;3.70;;;1.70;;
58643;SDS011;44411;49.994;8.660;2023-03-11T11:47:38;4.68;;;1.90;;
58643;SDS011;44411;49.994;8.660;2023-03-11T11:50:24;3.60;;;1.95;;
58643;SDS011;44411;49.994;8.660;2023-03-11T11:52:57;5.35;;;2.10;;
58643;SDS011;44411;49.994;8.660;2023-03-11T11:55:28;3.72;;;1.75;;
58643;SDS011;44411;49.994;8.660;2023-03-11T11:57:55;7.35;;;1.90;;
58643;SDS011;44411;49.994;8.660;2023-03-11T12:10:13;5.47;;;2.00;;
58643;SDS011;44411;49.994;8.660;2023-03-11T12:12:47;5.90;;;1.77;;
58643;SDS011;44411;49.994;8.660;2023-03-11T12:15:32;4.80;;;1.92;;
58643;SDS011;44411;49.994;8.660;2023-03-11T12:18:03;6.00;;;2.22;;
58643;SDS011;44411;49.994;8.660;2023-03-11T12:20:41;3.42;;;1.83;;
58643;SDS011;44411;49.994;8.660;2023-03-11T12:23:13;4.43;;;1.85;;
58643;SDS011;44411;49.994;8.660;2023-03-11T12:28:21;5.00;;;1.70;;
58643;SDS011;44411;49.994;8.660;2023-03-11T12:30:57;2.92;;;1.55;;
58643;SDS011;44411;49.994;8.660;2023-03-11T12:33:36;4.53;;;1.63;;
58643;SDS011;44411;49.994;8.660;2023-03-11T12:36:05;6.05;;;1.90;;
58643;SDS011;44411;49.994;8.660;2023-03-11T12:38:35;4.63;;;1.92;;
58643;SDS011;44411;49.994;8.660;2023-03-11T12:46:09;3.58;;;1.60;;
58643;SDS011;44411;49.994;8.660;2023-03-11T12:51:28;6.22;;;1.67;;
58643;SDS011;44411;49.994;8.660;2023-03-11T12:53:58;3.85;;;1.70;;
58643;SDS011;44411;49.994;8.660;2023-03-11T12:56:56;5.40;;;1.77;;
58643;SDS011;44411;49.994;8.660;2023-03-11T13:05:02;4.68;;;1.73;;
58643;SDS011;44411;49.994;8.660;2023-03-11T13:13:00;2.15;;;1.40;;
58643;SDS011;44411;49.994;8.660;2023-03-11T13:15:28;10.85;;;2.72;;
58643;SDS011;44411;49.994;8.660;2023-03-11T13:25:40;18.45;;;3.40;;
58643;SDS011;44411;49.994;8.660;2023-03-11T13:31:40;6.20;;;2.65;;
58643;SDS011;44411;49.994;8.660;2023-03-11T13:37:09;4.53;;;1.95;;
58643;SDS011;44411;49.994;8.660;2023-03-11T13:42:39;5.75;;;1.80;;
58643;SDS011;44411;49.994;8.660;2023-03-11T13:45:13;5.30;;;1.80;;
58643;SDS011;44411;49.994;8.660;2023-03-11T13:47:50;6.45;;;2.38;;
58643;SDS011;44411;49.994;8.660;2023-03-11T13:50:56;5.28;;;2.15;;
58643;SDS011;44411;49.994;8.660;2023-03-11T13:54:03;5.40;;;2.53;;
58643;SDS011;44411;49.994;8.660;2023-03-11T13:56:22;5.82;;;2.97;;
58643;SDS011;44411;49.994;8.660;2023-03-11T13:58:50;8.27;;;2.22;;
58643;SDS011;44411;49.994;8.660;2023-03-11T14:01:16;6.75;;;2.00;;
58643;SDS011;44411;49.994;8.660;2023-03-11T14:03:43;5.60;;;2.40;;
58643;SDS011;44411;49.994;8.660;2023-03-11T14:06:16;7.35;;;2.00;;
58643;SDS011;44411;49.994;8.660;2023-03-11T14:08:44;5.00;;;2.13;;
58643;SDS011;44411;49.994;8.660;2023-03-11T14:11:23;3.33;;;1.40;;
58643;SDS011;44411;49.994;8.660;2023-03-11T14:13:51;5.50;;;1.80;;
58643;SDS011;44411;49.994;8.660;2023-03-11T14:21:26;6.40;;;2.20;;
58643;SDS011;44411;49.994;8.660;2023-03-11T14:23:52;4.88;;;1.75;;
58643;SDS011;44411;49.994;8.660;2023-03-11T14:26:27;5.82;;;2.05;;
58643;SDS011;44411;49.994;8.660;2023-03-11T14:28:57;5.70;;;1.77;;
58643;SDS011;44411;49.994;8.660;2023-03-11T14:31:31;5.05;;;1.92;;
58643;SDS011;44411;49.994;8.660;2023-03-11T14:34:15;3.47;;;1.50;;
58643;SDS011;44411;49.994;8.660;2023-03-11T14:36:47;4.07;;;1.70;;
58643;SDS011;44411;49.994;8.660;2023-03-11T14:41:54;4.57;;;1.60;;
58643;SDS011;44411;49.994;8.660;2023-03-11T14:44:24;5.82;;;1.80;;
58643;SDS011;44411;49.994;8.660;2023-03-11T14:46:51;4.18;;;2.00;;
58643;SDS011;44411;49.994;8.660;2023-03-11T14:49:23;5.82;;;2.00;;
58643;SDS011;44411;49.994;8.660;2023-03-11T14:51:55;3.92;;;1.65;;
58643;SDS011;44411;49.994;8.660;2023-03-11T14:54:25;6.72;;;2.08;;
58643;SDS011;44411;49.994;8.660;2023-03-11T14:59:46;7.45;;;2.30;;
58643;SDS011;44411;49.994;8.660;2023-03-11T15:05:02;4.63;;;1.77;;
58643;SDS011;44411;49.994;8.660;2023-03-11T15:07:34;5.13;;;2.10;;
58643;SDS011;44411;49.994;8.660;2023-03-11T15:10:03;4.07;;;1.60;;
58643;SDS011;44411;49.994;8.660;2023-03-11T15:12:33;4.72;;;1.80;;
58643;SDS011;44411;49.994;8.660;2023-03-11T15:15:01;6.35;;;2.60;;
58643;SDS011;44411;49.994;8.660;2023-03-11T15:17:27;4.43;;;2.05;;
58643;SDS011;44411;49.994;8.660;2023-03-11T15:19:54;5.43;;;2.10;;
58643;SDS011;44411;49.994;8.660;2023-03-11T15:24:58;3.95;;;1.67;;
58643;SDS011;44411;49.994;8.660;2023-03-11T15:29:57;5.47;;;1.83;;
58643;SDS011;44411;49.994;8.660;2023-03-11T15:34:59;7.15;;;1.83;;
58643;SDS011;44411;49.994;8.660;2023-03-11T15:37:39;6.28;;;2.30;;
58643;SDS011;44411;49.994;8.660;2023-03-11T15:42:43;5.47;;;2.00;;
58643;SDS011;44411;49.994;8.660;2023-03-11T15:45:10;4.60;;;1.73;;
58643;SDS011;44411;49.994;8.660;2023-03-11T15:47:39;3.95;;;1.50;;
58643;SDS011;44411;49.994;8.660;2023-03-11T15:50:17;5.10;;;1.90;;
58643;SDS011;44411;49.994;8.660;2023-03-11T15:52:48;3.92;;;1.70;;
58643;SDS011;44411;49.994;8.660;2023-03-11T15:55:14;4.80;;;2.22;;
58643;SDS011;44411;49.994;8.660;2023-03-11T15:57:40;7.22;;;2.05;;
58643;SDS011;44411;49.994;8.660;2023-03-11T16:00:06;5.25;;;1.83;;
58643;SDS011;44411;49.994;8.660;2023-03-11T16:02:40;7.07;;;3.78;;
58643;SDS011;44411;49.994;8.660;2023-03-11T16:05:11;7.15;;;2.25;;
58643;SDS011;44411;49.994;8.660;2023-03-11T16:07:38;6.85;;;2.10;;
58643;SDS011;44411;49.994;8.660;2023-03-11T16:10:03;3.78;;;1.70;;
58643;SDS011;44411;49.994;8.660;2023-03-11T16:12:29;6.82;;;2.45;;
58643;SDS011;44411;49.994;8.660;2023-03-11T16:14:54;5.78;;;2.67;;
58643;SDS011;44411;49.994;8.660;2023-03-11T16:17:19;5.45;;;2.28;;
58643;SDS011;44411;49.994;8.660;2023-03-11T16:19:47;4.75;;;1.63;;
58643;SDS011;44411;49.994;8.660;2023-03-11T16:22:20;4.07;;;1.45;;
58643;SDS011;44411;49.994;8.660;2023-03-11T16:24:49;3.85;;;1.45;;
58643;SDS011;44411;49.994;8.660;2023-03-11T16:27:17;4.18;;;2.22;;
58643;SDS011;44411;49.994;8.660;2023-03-11T16:29:44;5.95;;;1.58;;
58643;SDS011;44411;49.994;8.660;2023-03-11T16:32:13;9.40;;;2.30;;
58643;SDS011;44411;49.994;8.660;2023-03-11T16:34:38;7.25;;;1.90;;
58643;SDS011;44411;49.994;8.660;2023-03-11T16:37:04;5.50;;;2.30;;
58643;SDS011;44411;49.994;8.660;2023-03-11T16:39:31;5.38;;;2.40;;
58643;SDS011;44411;49.994;8.660;2023-03-11T16:41:57;4.65;;;1.95;;
58643;SDS011;44411;49.994;8.660;2023-03-11T16:44:22;6.32;;;2.55;;
58643;SDS011;44411;49.994;8.660;2023-03-11T16:46:48;7.80;;;1.92;;
58643;SDS011;44411;49.994;8.660;2023-03-11T16:49:13;4.70;;;1.77;;
58643;SDS011;44411;49.994;8.660;2023-03-11T16:51:38;4.95;;;1.85;;
58643;SDS011;44411;49.994;8.660;2023-03-11T16:54:04;4.57;;;1.95;;
58643;SDS011;44411;49.994;8.660;2023-03-11T16:56:29;4.30;;;2.05;;
58643;SDS011;44411;49.994;8.660;2023-03-11T16:58:55;4.22;;;1.70;;
58643;SDS011;44411;49.994;8.660;2023-03-11T17:01:20;7.35;;;1.98;;
58643;SDS011;44411;49.994;8.660;2023-03-11T17:03:46;6.93;;;1.63;;
58643;SDS011;44411;49.994;8.660;2023-03-11T17:06:14;5.65;;;1.85;;
58643;SDS011;44411;49.994;8.660;2023-03-11T17:08:40;3.60;;;1.73;;
58643;SDS011;44411;49.994;8.660;2023-03-11T17:11:12;5.55;;;2.30;;
58643;SDS011;44411;49.994;8.660;2023-03-11T17:13:42;4.93;;;2.20;;
58643;SDS011;44411;49.994;8.660;2023-03-11T17:16:11;6.22;;;2.22;;
58643;SDS011;44411;49.994;8.660;2023-03-11T17:18:36;4.30;;;2.08;;
58643;SDS011;44411;49.994;8.660;2023-03-11T17:21:09;5.50;;;2.10;;
58643;SDS011;44411;49.994;8.660;2023-03-11T17:23:37;5.05;;;2.03;;
58643;SDS011;44411;49.994;8.660;2023-03-11T17:26:06;3.95;;;1.75;;
58643;SDS011;44411;49.994;8.660;2023-03-11T17:28:34;3.53;;;1.63;;
58643;SDS011;44411;49.994;8.660;2023-03-11T17:31:00;5.07;;;2.00;;
58643;SDS011;44411;49.994;8.660;2023-03-11T17:33:25;4.85;;;2.20;;
58643;SDS011;44411;49.994;8.660;2023-03-11T17:35:58;10.80;;;3.28;;
58643;SDS011;44411;49.994;8.660;2023-03-11T17:38:25;59.00;;;29.17;;
58643;SDS011;44411;49.994;8.660;2023-03-11T17:40:50;23.20;;;13.88;;
58643;SDS011;44411;49.994;8.660;2023-03-11T17:43:16;25.50;;;17.52;;
58643;SDS011;44411;49.994;8.660;2023-03-11T17:45:41;23.00;;;13.82;;
58643;SDS011;44411;49.994;8.660;2023-03-11T17:48:06;18.55;;;11.68;;
58643;SDS011;44411;49.994;8.660;2023-03-11T17:50:34;17.40;;;8.35;;
58643;SDS011;44411;49.994;8.660;2023-03-11T17:53:02;6.30;;;3.28;;
58643;SDS011;44411;49.994;8.660;2023-03-11T17:55:29;6.72;;;3.42;;
58643;SDS011;44411;49.994;8.660;2023-03-11T17:57:54;8.57;;;3.55;;
58643;SDS011;44411;49.994;8.660;2023-03-11T18:00:19;12.23;;;6.03;;
58643;SDS011;44411;49.994;8.660;2023-03-11T18:02:45;13.45;;;5.65;;
58643;SDS011;44411;49.994;8.660;2023-03-11T18:05:10;19.40;;;7.22;;
58643;SDS011;44411;49.994;8.660;2023-03-11T18:07:36;22.13;;;12.65;;
58643;SDS011;44411;49.994;8.660;2023-03-11T18:10:05;22.13;;;11.40;;
58643;SDS011;44411;49.994;8.660;2023-03-11T18:12:31;12.45;;;8.88;;
58643;SDS011;44411;49.994;8.660;2023-03-11T18:14:57;15.48;;;11.52;;
58643;SDS011;44411;49.994;8.660;2023-03-11T18:17:22;13.52;;;10.25;;
58643;SDS011;44411;49.994;8.660;2023-03-11T18:19:48;16.10;;;11.07;;
58643;SDS011;44411;49.994;8.660;2023-03-11T18:22:13;23.65;;;14.20;;
58643;SDS011;44411;49.994;8.660;2023-03-11T18:24:39;33.22;;;16.75;;
58643;SDS011;44411;49.994;8.660;2023-03-11T18:27:05;22.02;;;13.85;;
58643;SDS011;44411;49.994;8.660;2023-03-11T18:29:30;25.63;;;14.98;;
58643;SDS011;44411;49.994;8.660;2023-03-11T18:31:56;29.50;;;14.43;;
58643;SDS011;44411;49.994;8.660;2023-03-11T18:34:21;24.42;;;13.02;;
58643;SDS011;44411;49.994;8.660;2023-03-11T18:36:47;23.45;;;12.98;;
58643;SDS011;44411;49.994;8.660;2023-03-11T18:39:13;21.67;;;12.27;;
58643;SDS011;44411;49.994;8.660;2023-03-11T18:41:39;22.30;;;11.52;;
58643;SDS011;44411;49.994;8.660;2023-03-11T18:44:06;21.90;;;12.48;;
58643;SDS011;44411;49.994;8.660;2023-03-11T18:46:31;20.90;;;11.30;;
58643;SDS011;44411;49.994;8.660;2023-03-11T18:48:57;15.48;;;8.93;;
58643;SDS011;44411;49.994;8.660;2023-03-11T18:51:23;17.30;;;10.07;;
58643;SDS011;44411;49.994;8.660;2023-03-11T18:53:50;20.17;;;11.05;;
58643;SDS011;44411;49.994;8.660;2023-03-11T18:56:15;19.40;;;11.45;;
58643;SDS011;44411;49.994;8.660;2023-03-11T18:58:42;18.42;;;9.48;;
58643;SDS011;44411;49.994;8.660;2023-03-11T19:03:33;15.30;;;8.98;;
58643;SDS011;44411;49.994;8.660;2023-03-11T19:05:58;14.70;;;8.05;;
58643;SDS011;44411;49.994;8.660;2023-03-11T19:08:24;10.90;;;6.90;;
58643;SDS011;44411;49.994;8.660;2023-03-11T19:10:52;11.43;;;6.28;;
58643;SDS011;44411;49.994;8.660;2023-03-11T19:13:18;12.73;;;7.40;;
58643;SDS011;44411;49.994;8.660;2023-03-11T19:15:45;10.20;;;7.93;;
58643;SDS011;44411;49.994;8.660;2023-03-11T19:18:10;16.70;;;8.73;;
58643;SDS011;44411;49.994;8.660;2023-03-11T19:20:36;15.38;;;9.30;;
58643;SDS011;44411;49.994;8.660;2023-03-11T19:23:02;15.93;;;9.88;;
58643;SDS011;44411;49.994;8.660;2023-03-11T19:25:29;19.75;;;13.20;;
58643;SDS011;44411;49.994;8.660;2023-03-11T19:27:55;24.35;;;15.48;;
58643;SDS011;44411;49.994;8.660;2023-03-11T19:30:21;27.00;;;19.08;;
58643;SDS011;44411;49.994;8.660;2023-03-11T19:32:46;27.00;;;19.73;;
58643;SDS011;44411;49.994;8.660;2023-03-11T19:35:14;25.80;;;18.63;;
58643;SDS011;44411;49.994;8.660;2023-03-11T19:37:40;27.48;;;20.00;;
58643;SDS011;44411;49.994;8.660;2023-03-11T19:40:06;30.63;;;20.38;;
58643;SDS011;44411;49.994;8.660;2023-03-11T19:42:32;31.35;;;23.55;;
58643;SDS011;44411;49.994;8.660;2023-03-11T19:44:58;26.85;;;18.92;;
58643;SDS011;44411;49.994;8.660;2023-03-11T19:49:58;24.15;;;16.05;;
58643;SDS011;44411;49.994;8.660;2023-03-11T19:52:23;19.23;;;13.45;;
58643;SDS011;44411;49.994;8.660;2023-03-11T19:54:49;22.70;;;17.33;;
58643;SDS011;44411;49.994;8.660;2023-03-11T19:57:14;24.13;;;16.70;;
58643;SDS011;44411;49.994;8.660;2023-03-11T19:59:40;23.15;;;16.40;;
58643;SDS011;44411;49.994;8.660;2023-03-11T20:02:06;20.63;;;15.90;;
58643;SDS011;44411;49.994;8.660;2023-03-11T20:04:34;17.65;;;14.27;;
58643;SDS011;44411;49.994;8.660;2023-03-11T20:07:00;19.08;;;14.48;;